Time;durP1;ratioP1;P1;durP2;ratioP2;P2;SDS_P1;SDS_P2;PMS_P1;PMS_P2;Temp;Humidity;BMP_temperature;BMP_pressure;BME280_temperature;BME280_humidity;BME280_pressure;Samples;Min_cycle;Max_cycle;Signal;HPM_P1;HPM_P2
2021/07/01 00:01:00;;;;;;;5.43;4.90;;;;;;;15.04;100.00;99298.31;5094451;28;20226;-75
2021/07/01 00:03:26;;;;;;;6.68;5.40;;;;;;;15.21;100.00;99297.81;5094524;28;20265;-75
2021/07/01 00:05:53;;;;;;;5.82;5.20;;;;;;;15.20;100.00;99304.25;5094623;28;20593;-75
2021/07/01 00:08:19;;;;;;;7.15;5.78;;;;;;;15.12;100.00;99304.84;5094387;28;20508;-73
2021/07/01 00:10:46;;;;;;;6.50;5.70;;;;;;;15.11;100.00;99307.72;5094395;28;20558;-73
2021/07/01 00:13:14;;;;;;;6.50;5.80;;;;;;;15.15;100.00;99295.59;5094437;28;20192;-73
2021/07/01 00:15:41;;;;;;;7.22;5.30;;;;;;;15.27;100.00;99296.47;5093733;28;20210;-74
2021/07/01 00:18:07;;;;;;;6.85;5.38;;;;;;;15.23;100.00;99294.00;5094436;28;20206;-74
2021/07/01 00:20:34;;;;;;;7.30;5.50;;;;;;;15.19;100.00;99300.66;5094306;28;20573;-73
2021/07/01 00:23:01;;;;;;;6.63;5.10;;;;;;;15.31;100.00;99298.78;5094064;28;20625;-73
2021/07/01 00:25:28;;;;;;;8.70;5.15;;;;;;;15.42;100.00;99295.16;5094211;28;20356;-73
2021/07/01 00:27:54;;;;;;;7.65;5.13;;;;;;;15.42;100.00;99293.34;5093893;28;20194;-75
2021/07/01 00:30:23;;;;;;;9.95;4.72;;;;;;;15.27;100.00;99291.03;5094657;28;20213;-74
2021/07/01 00:32:50;;;;;;;6.57;5.97;;;;;;;15.20;100.00;99296.97;5093798;28;20293;-73
2021/07/01 00:35:17;;;;;;;5.90;4.95;;;;;;;15.36;100.00;99293.00;5093763;28;20210;-74
2021/07/01 00:37:44;;;;;;;5.20;4.70;;;;;;;15.41;100.00;99290.75;5093776;28;20556;-74
2021/07/01 00:40:13;;;;;;;19.30;5.45;;;;;;;15.27;100.00;99300.03;5093861;28;20550;-74
2021/07/01 00:42:40;;;;;;;6.00;5.40;;;;;;;15.19;100.00;99294.38;5093481;28;20230;-74
2021/07/01 00:45:08;;;;;;;9.30;5.10;;;;;;;15.16;100.00;99291.91;5093766;28;20697;-74
2021/07/01 00:47:37;;;;;;;5.70;4.50;;;;;;;14.94;100.00;99293.66;5093705;28;20203;-74
2021/07/01 00:50:07;;;;;;;8.07;5.45;;;;;;;15.09;100.00;99298.84;5093408;28;20207;-74
2021/07/01 00:52:34;;;;;;;6.28;5.13;;;;;;;15.08;100.00;99292.56;5093405;28;20209;-74
2021/07/01 00:55:06;;;;;;;7.28;5.95;;;;;;;15.09;100.00;99294.25;5093745;28;20326;-74
2021/07/01 00:57:34;;;;;;;6.00;5.00;;;;;;;15.27;100.00;99288.34;5093272;28;20694;-73
2021/07/01 01:00:01;;;;;;;10.43;6.85;;;;;;;15.21;100.00;99292.38;5095773;28;20184;-74
2021/07/01 01:02:28;;;;;;;6.22;4.70;;;;;;;15.41;100.00;99293.47;5092777;28;20234;-74
2021/07/01 01:04:56;;;;;;;5.97;5.30;;;;;;;15.30;100.00;99290.78;5092914;28;20277;-74
2021/07/01 01:07:22;;;;;;;5.57;4.60;;;;;;;15.25;100.00;99285.72;5093312;28;20633;-73
2021/07/01 01:09:49;;;;;;;8.68;5.40;;;;;;;15.27;100.00;99291.03;5093302;28;20639;-74
2021/07/01 01:12:16;;;;;;;5.68;5.07;;;;;;;15.17;100.00;99290.91;5092898;28;20231;-75
2021/07/01 01:14:42;;;;;;;8.50;4.97;;;;;;;15.20;100.00;99285.25;5093185;28;20242;-74
2021/07/01 01:17:09;;;;;;;6.00;5.35;;;;;;;15.15;100.00;99284.75;5093342;28;20271;-74
2021/07/01 01:19:36;;;;;;;7.05;5.00;;;;;;;15.30;100.00;99286.22;5093186;28;20274;-75
2021/07/01 01:22:04;;;;;;;5.95;4.65;;;;;;;15.38;100.00;99278.31;5092909;28;20186;-74
2021/07/01 01:24:34;;;;;;;11.18;5.45;;;;;;;15.36;100.00;99279.44;5092833;28;20234;-74
2021/07/01 01:27:01;;;;;;;5.93;4.75;;;;;;;15.45;100.00;99277.81;5092687;28;20193;-74
2021/07/01 01:29:27;;;;;;;6.70;4.40;;;;;;;15.29;100.00;99276.38;5094298;28;20697;-73
2021/07/01 01:31:54;;;;;;;6.15;4.60;;;;;;;15.51;100.00;99278.16;5093295;28;20229;-74
2021/07/01 01:34:20;;;;;;;8.73;4.55;;;;;;;15.50;100.00;99273.69;5092907;28;20243;-73
2021/07/01 01:36:47;;;;;;;5.18;4.65;;;;;;;15.37;100.00;99286.56;5092897;28;20188;-73
2021/07/01 01:39:15;;;;;;;6.15;4.60;;;;;;;15.32;100.00;99289.66;5092972;28;20203;-72
2021/07/01 01:41:42;;;;;;;6.32;4.40;;;;;;;15.29;100.00;99294.50;5092853;28;20180;-74
2021/07/01 01:44:08;;;;;;;9.32;5.15;;;;;;;15.26;100.00;99292.00;5093169;28;20278;-73
2021/07/01 01:46:36;;;;;;;5.00;4.50;;;;;;;15.20;100.00;99293.41;5094345;28;20290;-74
2021/07/01 01:49:05;;;;;;;6.30;4.30;;;;;;;15.23;100.00;99285.84;5092840;28;20233;-74
2021/07/01 01:51:31;;;;;;;7.25;5.03;;;;;;;15.20;100.00;99296.09;5092985;28;20668;-72
2021/07/01 01:53:58;;;;;;;6.35;4.35;;;;;;;15.20;100.00;99285.25;5092469;28;20231;-73
2021/07/01 01:56:36;;;;;;;8.57;5.03;;;;;;;15.25;100.00;99277.59;5093109;28;20606;-74
2021/07/01 01:59:03;;;;;;;9.25;4.13;;;;;;;15.39;100.00;99285.44;5092837;28;20183;-74
2021/07/01 02:01:30;;;;;;;5.40;4.53;;;;;;;15.22;100.00;99280.56;5092740;28;20235;-74
2021/07/01 02:03:58;;;;;;;5.53;4.82;;;;;;;15.02;100.00;99295.75;5092574;28;20321;-73
2021/07/01 02:06:24;;;;;;;6.57;4.50;;;;;;;14.96;100.00;99293.53;5093051;28;20279;-74
2021/07/01 02:08:51;;;;;;;5.05;4.38;;;;;;;14.89;100.00;99290.47;5092883;28;20237;-73
2021/07/01 02:11:18;;;;;;;8.07;4.47;;;;;;;15.04;100.00;99293.78;5093014;28;20254;-73
2021/07/01 02:13:46;;;;;;;5.70;3.85;;;;;;;15.01;100.00;99291.31;5094169;28;20187;-73
2021/07/01 02:16:13;;;;;;;5.13;4.63;;;;;;;15.08;100.00;99295.28;5097015;28;20191;-74
2021/07/01 02:18:40;;;;;;;5.70;4.55;;;;;;;15.19;100.00;99297.94;5100401;28;20224;-74
2021/07/01 02:21:06;;;;;;;5.55;4.18;;;;;;;15.11;100.00;99286.88;5117021;28;20219;-74
2021/07/01 02:23:33;;;;;;;6.10;4.18;;;;;;;15.03;100.00;99292.03;5116847;28;20228;-74
2021/07/01 02:26:00;;;;;;;4.47;3.88;;;;;;;15.18;100.00;99295.38;5116705;28;20302;-74
2021/07/01 02:28:26;;;;;;;5.78;4.78;;;;;;;15.03;100.00;99292.03;5116632;28;20191;-73
2021/07/01 02:30:54;;;;;;;5.65;4.85;;;;;;;15.25;100.00;99295.72;5116700;28;20254;-74
2021/07/01 02:33:21;;;;;;;4.90;4.40;;;;;;;15.05;100.00;99289.22;5117052;28;20533;-73
2021/07/01 02:35:48;;;;;;;5.00;4.28;;;;;;;15.11;100.00;99286.00;5117130;28;20559;-73
2021/07/01 02:38:14;;;;;;;5.15;3.80;;;;;;;15.12;100.00;99283.16;5116836;27;20504;-74
2021/07/01 02:40:41;;;;;;;6.78;4.28;;;;;;;15.08;100.00;99281.72;5116996;28;20629;-74
2021/07/01 02:43:07;;;;;;;4.63;4.15;;;;;;;15.21;100.00;99286.97;5116492;28;20180;-73
2021/07/01 02:45:35;;;;;;;5.30;4.13;;;;;;;15.12;100.00;99291.28;5116746;28;20532;-74
2021/07/01 02:48:04;;;;;;;5.13;4.10;;;;;;;15.09;100.00;99293.41;5116380;28;20218;-73
2021/07/01 02:50:30;;;;;;;4.68;4.18;;;;;;;15.16;100.00;99294.63;5099740;28;20254;-74
2021/07/01 02:52:57;;;;;;;4.93;4.10;;;;;;;15.12;100.00;99298.56;5095684;28;20268;-73
2021/07/01 02:55:23;;;;;;;5.78;3.55;;;;;;;15.24;99.86;99297.59;5095876;28;20316;-73
2021/07/01 02:57:50;;;;;;;7.90;4.38;;;;;;;15.18;100.00;99300.78;5095580;28;20210;-73
2021/07/01 03:00:17;;;;;;;5.05;4.10;;;;;;;15.06;100.00;99304.47;5095508;28;20184;-74
2021/07/01 03:02:44;;;;;;;7.00;4.30;;;;;;;15.14;100.00;99293.88;5095584;28;20291;-74
2021/07/01 03:05:12;;;;;;;4.55;3.33;;;;;;;15.16;100.00;99294.63;5095268;28;20239;-73
2021/07/01 03:07:39;;;;;;;6.05;4.45;;;;;;;15.25;100.00;99296.59;5095577;28;20181;-74
2021/07/01 03:10:07;;;;;;;6.30;4.10;;;;;;;15.09;100.00;99294.25;5095579;28;20656;-73
2021/07/01 03:12:33;;;;;;;6.40;4.20;;;;;;;15.16;100.00;99300.91;5095835;28;20835;-73
2021/07/01 03:15:00;;;;;;;6.22;4.50;;;;;;;15.28;99.49;99300.88;5096130;28;20192;-75
2021/07/01 03:17:27;;;;;;;5.00;4.40;;;;;;;15.19;99.30;99302.50;5095337;28;20291;-75
2021/07/01 03:19:53;;;;;;;6.32;3.75;;;;;;;15.21;98.80;99304.09;5111793;28;20195;-73
2021/07/01 03:22:21;;;;;;;6.15;4.30;;;;;;;15.34;97.91;99295.81;5116031;28;20233;-73
2021/07/01 03:24:48;;;;;;;5.70;4.30;;;;;;;15.20;98.54;99296.09;5115575;27;20261;-74
2021/07/01 03:27:15;;;;;;;5.82;4.20;;;;;;;15.09;99.01;99296.97;5115996;28;20187;-73
2021/07/01 03:29:41;;;;;;;8.20;4.75;;;;;;;14.90;100.00;99300.34;5115842;27;20533;-74
2021/07/01 03:32:08;;;;;;;5.88;4.20;;;;;;;14.96;100.00;99297.09;5115569;28;20240;-74
2021/07/01 03:34:35;;;;;;;5.25;4.65;;;;;;;14.97;99.94;99306.13;5115395;27;20182;-74
2021/07/01 03:37:01;;;;;;;5.88;4.25;;;;;;;15.01;99.74;99305.75;5115225;28;20282;-75
2021/07/01 03:39:29;;;;;;;8.43;4.50;;;;;;;14.93;100.00;99310.91;5115268;28;20277;-73
2021/07/01 03:41:56;;;;;;;6.82;4.85;;;;;;;14.98;100.00;99308.69;5114883;28;20289;-75
2021/07/01 03:44:23;;;;;;;5.68;4.55;;;;;;;14.97;100.00;99309.69;5115372;28;20183;-74
2021/07/01 03:46:49;;;;;;;7.40;4.22;;;;;;;15.01;99.91;99315.72;5113009;28;20191;-74
2021/07/01 03:49:16;;;;;;;6.68;4.85;;;;;;;15.04;99.64;99312.78;5106919;28;20223;-73
2021/07/01 03:51:42;;;;;;;9.85;4.95;;;;;;;15.08;98.92;99302.50;5094993;28;20749;-73
2021/07/01 03:54:09;;;;;;;4.53;4.07;;;;;;;15.07;99.11;99304.38;5094783;28;20202;-73
2021/07/01 03:56:43;;;;;;;5.97;4.97;;;;;;;15.08;99.17;99303.41;5094890;28;20196;-74
2021/07/01 03:59:10;;;;;;;7.00;4.95;;;;;;;15.12;98.76;99302.13;5094611;28;20187;-74
2021/07/01 04:01:37;;;;;;;9.30;5.88;;;;;;;14.97;98.37;99298.00;5094523;28;20183;-74
2021/07/01 04:04:05;;;;;;;6.45;5.45;;;;;;;14.97;99.49;99306.13;5094270;28;20241;-74
2021/07/01 04:06:31;;;;;;;9.52;5.15;;;;;;;14.98;99.06;99315.97;5094562;28;20660;-74
2021/07/01 04:08:58;;;;;;;7.85;5.10;;;;;;;14.98;99.20;99313.25;5094524;28;20686;-73
2021/07/01 04:11:25;;;;;;;6.82;5.25;;;;;;;15.06;98.79;99313.50;5094438;28;20213;-74
2021/07/01 04:13:53;;;;;;;7.10;4.75;;;;;;;15.00;98.10;99314.00;5094452;28;20188;-74
2021/07/01 04:16:20;;;;;;;8.10;4.90;;;;;;;15.03;98.51;99311.03;5095405;28;20196;-74
2021/07/01 04:18:47;;;;;;;6.95;5.25;;;;;;;15.04;99.69;99312.78;5094502;28;20193;-74
2021/07/01 04:21:13;;;;;;;5.55;4.78;;;;;;;15.04;99.43;99311.88;5093731;28;20276;-75
2021/07/01 04:23:40;;;;;;;7.82;5.13;;;;;;;15.05;99.82;99317.19;5094134;28;20561;-73
2021/07/01 04:26:06;;;;;;;25.70;5.30;;;;;;;15.07;99.94;99326.06;5094969;28;20279;-74
2021/07/01 04:28:33;;;;;;;8.32;5.68;;;;;;;15.09;100.00;99325.94;5093956;28;20202;-75
2021/07/01 04:31:02;;;;;;;8.45;5.47;;;;;;;15.08;100.00;99329.63;5095889;28;20275;-73
2021/07/01 04:33:29;;;;;;;8.52;5.13;;;;;;;15.04;99.89;99323.63;5101697;28;20184;-74
2021/07/01 04:35:56;;;;;;;6.30;5.70;;;;;;;15.09;99.78;99320.53;5092702;28;20366;-75
2021/07/01 04:38:23;;;;;;;7.05;5.07;;;;;;;15.17;100.00;99320.75;5093721;28;20621;-74
2021/07/01 04:40:50;;;;;;;7.85;5.68;;;;;;;15.35;98.83;99321.97;5093483;28;20209;-73
2021/07/01 04:43:17;;;;;;;5.97;5.38;;;;;;;15.23;98.05;99312.97;5093433;28;20184;-74
2021/07/01 04:45:44;;;;;;;5.85;5.18;;;;;;;15.33;97.26;99321.22;5093441;28;20271;-73
2021/07/01 04:48:12;;;;;;;7.88;5.75;;;;;;;15.20;98.15;99317.81;5093248;28;20629;-74
2021/07/01 04:50:39;;;;;;;7.82;5.85;;;;;;;15.32;97.42;99324.91;5092724;28;20271;-73
2021/07/01 04:53:05;;;;;;;6.78;6.07;;;;;;;15.48;96.89;99323.66;5093278;28;20220;-73
2021/07/01 04:55:32;;;;;;;6.60;5.55;;;;;;;15.54;95.11;99325.88;5092966;28;20275;-74
2021/07/01 04:57:59;;;;;;;8.45;6.03;;;;;;;15.50;95.20;99322.53;5093007;28;20632;-73
2021/07/01 05:00:25;;;;;;;6.13;5.50;;;;;;;15.36;95.95;99325.53;5093223;28;20199;-74
2021/07/01 05:02:52;;;;;;;9.57;6.00;;;;;;;15.49;95.65;99328.09;5092946;28;20278;-73
2021/07/01 05:05:20;;;;;;;6.75;5.63;;;;;;;15.50;94.66;99327.97;5092554;28;20259;-74
2021/07/01 05:07:47;;;;;;;7.18;5.70;;;;;;;15.56;94.29;99329.31;5111646;28;20195;-73
2021/07/01 05:10:15;;;;;;;5.63;4.85;;;;;;;15.45;94.96;99322.06;5113281;28;20300;-73
2021/07/01 05:12:42;;;;;;;5.95;5.25;;;;;;;15.61;93.87;99321.66;5111099;28;20222;-74
2021/07/01 05:15:10;;;;;;;8.00;6.38;;;;;;;15.61;93.30;99318.94;5112872;28;20614;-75
2021/07/01 05:17:37;;;;;;;7.50;6.38;;;;;;;15.37;94.53;99324.53;5112993;28;20541;-74
2021/07/01 05:20:05;;;;;;;10.15;5.93;;;;;;;15.35;95.18;99330.13;5112588;28;20272;-74
2021/07/01 05:22:33;;;;;;;8.90;6.80;;;;;;;15.40;96.18;99324.31;5112924;28;20194;-74
2021/07/01 05:24:59;;;;;;;8.60;6.05;;;;;;;15.17;96.79;99329.75;5112674;28;20215;-75
2021/07/01 05:27:26;;;;;;;7.55;5.43;;;;;;;15.30;97.39;99323.31;5112625;28;20198;-73
2021/07/01 05:29:53;;;;;;;8.48;6.15;;;;;;;15.45;96.78;99326.63;5110695;28;20281;-74
2021/07/01 05:32:19;;;;;;;6.85;6.00;;;;;;;15.51;96.05;99327.00;5109994;28;20257;-74
2021/07/01 05:34:46;;;;;;;10.45;6.53;;;;;;;15.55;95.62;99324.88;5090775;28;20662;-75
2021/07/01 05:37:13;;;;;;;7.55;6.60;;;;;;;15.47;96.03;99330.94;5091666;28;20219;-73
2021/07/01 05:39:41;;;;;;;8.40;6.53;;;;;;;15.59;95.83;99329.91;5092206;28;20626;-75
2021/07/01 05:42:08;;;;;;;6.70;6.00;;;;;;;15.60;93.56;99334.38;5092004;28;20227;-75
2021/07/01 05:44:35;;;;;;;6.68;5.85;;;;;;;15.56;94.00;99326.63;5091800;28;20188;-74
2021/07/01 05:47:01;;;;;;;10.07;7.07;;;;;;;15.69;93.67;99335.44;5092130;28;20581;-74
2021/07/01 05:49:28;;;;;;;9.73;6.07;;;;;;;15.61;93.60;99330.66;5091926;28;20234;-74
2021/07/01 05:51:56;;;;;;;8.88;6.30;;;;;;;15.65;92.93;99339.41;5091956;28;20618;-73
2021/07/01 05:54:27;;;;;;;7.50;6.65;;;;;;;15.56;93.21;99334.75;5092146;28;20247;-73
2021/07/01 05:56:55;;;;;;;7.68;5.93;;;;;;;15.54;93.89;99336.72;5092279;28;20190;-74
2021/07/01 05:59:22;;;;;;;7.93;6.32;;;;;;;15.51;93.41;99339.69;5091511;28;20290;-74
2021/07/01 06:01:49;;;;;;;7.88;6.00;;;;;;;15.41;94.22;99337.72;5091446;28;20367;-74
2021/07/01 06:04:17;;;;;;;9.35;5.85;;;;;;;15.61;94.25;99346.94;5091982;28;20241;-74
2021/07/01 06:06:50;;;;;;;9.13;6.18;;;;;;;15.42;94.91;99342.19;5091778;28;20233;-74
2021/07/01 06:09:17;;;;;;;7.05;5.50;;;;;;;14.98;97.59;99352.06;5094218;28;20565;-73
2021/07/01 06:11:44;;;;;;;8.15;6.10;;;;;;;14.70;100.00;99353.41;5112091;28;20217;-75
2021/07/01 06:14:13;;;;;;;8.90;6.03;;;;;;;14.65;100.00;99360.16;5112116;28;20191;-74
2021/07/01 06:16:40;;;;;;;7.25;5.32;;;;;;;14.43;100.00;99351.00;5110814;28;20189;-74
2021/07/01 06:19:07;;;;;;;9.43;7.95;;;;;;;14.41;100.00;99362.94;5112577;28;20456;-76
2021/07/01 06:21:34;;;;;;;7.90;5.70;;;;;;;14.52;100.00;99360.25;5112622;28;21062;-74
2021/07/01 06:24:00;;;;;;;8.30;5.88;;;;;;;14.33;100.00;99350.84;5111932;28;20980;-77
2021/07/01 06:26:29;;;;;;;7.00;6.20;;;;;;;14.35;100.00;99359.69;5112571;28;20206;-76
2021/07/01 06:28:57;;;;;;;9.68;6.00;;;;;;;14.34;100.00;99359.84;5112386;28;20208;-74
2021/07/01 06:31:25;;;;;;;8.07;6.30;;;;;;;14.49;100.00;99368.59;5112542;28;20535;-74
2021/07/01 06:33:52;;;;;;;6.10;5.40;;;;;;;14.58;100.00;99365.22;5111738;28;20197;-74
2021/07/01 06:36:20;;;;;;;8.05;5.47;;;;;;;14.74;100.00;99365.75;5111902;28;20206;-75
2021/07/01 06:38:50;;;;;;;5.32;4.28;;;;;;;14.82;100.00;99361.56;5110305;28;20178;-75
2021/07/01 06:41:18;;;;;;;7.55;5.53;;;;;;;14.80;100.00;99365.25;5110475;28;20600;-75
2021/07/01 06:43:47;;;;;;;5.82;5.20;;;;;;;14.66;100.00;99368.19;5102164;28;20224;-75
2021/07/01 06:46:15;;;;;;;8.07;6.60;;;;;;;14.73;100.00;99372.13;5108446;28;20196;-75
2021/07/01 06:48:44;;;;;;;8.15;6.40;;;;;;;14.87;100.00;99367.47;5112236;28;20371;-74
2021/07/01 06:51:11;;;;;;;5.97;5.20;;;;;;;14.91;100.00;99368.97;5112309;28;20210;-74
2021/07/01 06:53:41;;;;;;;6.00;4.30;;;;;;;15.01;100.00;99373.53;5111675;28;20235;-75
2021/07/01 06:56:07;;;;;;;6.05;4.75;;;;;;;14.97;97.66;99372.03;5112384;28;20671;-75
2021/07/01 06:58:35;;;;;;;4.95;4.40;;;;;;;14.92;98.53;99381.50;5111938;28;20186;-75
2021/07/01 07:01:03;;;;;;;5.20;4.40;;;;;;;14.79;98.02;99385.22;5101794;28;20196;-76
2021/07/01 07:03:30;;;;;;;6.57;4.63;;;;;;;14.86;98.67;99388.31;5095201;28;20261;-75
2021/07/01 07:06:00;;;;;;;6.78;4.70;;;;;;;14.85;97.24;99389.25;5095081;28;20719;-75
2021/07/01 07:08:27;;;;;;;7.53;4.95;;;;;;;14.84;97.78;99386.69;5095200;28;20289;-75
2021/07/01 07:10:54;;;;;;;6.82;4.97;;;;;;;14.82;98.88;99384.09;5106971;28;20208;-76
2021/07/01 07:13:24;;;;;;;6.90;4.57;;;;;;;14.89;99.56;99390.75;5115630;28;20537;-74
2021/07/01 07:15:52;;;;;;;8.77;5.00;;;;;;;14.93;99.21;99391.38;5113641;28;20317;-75
2021/07/01 07:18:20;;;;;;;6.55;4.88;;;;;;;15.14;98.48;99396.94;5115382;28;20615;-76
2021/07/01 07:20:53;;;;;;;7.22;4.43;;;;;;;15.12;97.13;99397.03;5115106;28;20217;-75
2021/07/01 07:23:28;;;;;;;5.10;4.10;;;;;;;15.21;97.32;99401.72;5096279;28;20630;-76
2021/07/01 07:25:55;;;;;;;4.97;4.07;;;;;;;15.20;97.07;99399.16;5095398;28;20211;-75
2021/07/01 07:28:24;;;;;;;6.18;5.45;;;;;;;15.19;95.75;99411.84;5096189;28;20187;-74
2021/07/01 07:30:53;;;;;;;4.55;4.10;;;;;;;15.20;96.06;99410.00;5095892;28;20207;-74
2021/07/01 07:33:23;;;;;;;9.43;4.32;;;;;;;15.19;96.10;99409.13;5094988;28;20292;-75
2021/07/01 07:35:50;;;;;;;6.80;4.00;;;;;;;15.41;95.33;99401.97;5095441;28;20199;-74
2021/07/01 07:38:19;;;;;;;5.30;4.40;;;;;;;15.44;94.01;99407.16;5095016;28;20211;-75
2021/07/01 07:40:51;;;;;;;5.53;3.65;;;;;;;15.47;94.18;99412.34;5095273;28;20265;-75
2021/07/01 07:43:19;;;;;;;4.70;4.07;;;;;;;15.61;93.03;99406.63;5094871;28;20180;-75
2021/07/01 07:45:48;;;;;;;3.67;3.10;;;;;;;15.67;91.97;99401.69;5110023;28;20645;-74
2021/07/01 07:48:15;;;;;;;3.47;2.40;;;;;;;15.61;92.16;99405.78;5113425;28;20191;-74
2021/07/01 07:50:46;;;;;;;2.40;2.20;;;;;;;15.37;93.64;99403.22;5115327;28;20283;-74
2021/07/01 07:53:18;;;;;;;5.13;3.75;;;;;;;15.14;94.85;99416.78;5115491;28;20661;-74
2021/07/01 07:55:50;;;;;;;4.95;4.45;;;;;;;15.29;95.88;99401.13;5114659;28;20191;-76
2021/07/01 07:58:17;;;;;;;4.93;3.58;;;;;;;15.42;93.59;99407.28;5115536;28;20629;-75
2021/07/01 08:00:44;;;;;;;3.90;3.35;;;;;;;15.46;94.04;99407.88;5115438;27;20270;-75
2021/07/01 08:03:12;;;;;;;6.38;4.25;;;;;;;15.55;93.45;99403.56;5115035;28;20215;-75
2021/07/01 08:05:40;;;;;;;4.90;3.75;;;;;;;15.43;93.92;99416.28;5115395;28;20203;-75
2021/07/01 08:08:15;;;;;;;4.18;3.78;;;;;;;15.26;94.06;99416.78;5115013;28;20617;-74
2021/07/01 08:10:42;;;;;;;5.10;3.97;;;;;;;15.44;94.59;99415.28;5111981;28;20236;-73
2021/07/01 08:13:10;;;;;;;4.65;3.90;;;;;;;15.55;93.24;99409.00;5114890;28;20273;-74
2021/07/01 08:15:40;;;;;;;6.75;4.60;;;;;;;15.48;93.00;99414.06;5114873;28;20219;-74
2021/07/01 08:18:07;;;;;;;5.70;4.80;;;;;;;15.55;93.51;99415.28;5114670;28;20321;-75
2021/07/01 08:20:34;;;;;;;4.35;3.95;;;;;;;15.61;92.28;99409.34;5114747;28;20282;-74
2021/07/01 08:23:01;;;;;;;5.78;4.65;;;;;;;15.73;90.85;99417.50;5114703;28;20621;-75
2021/07/01 08:25:30;;;;;;;8.05;5.57;;;;;;;15.87;91.67;99409.06;5115085;28;20226;-76
2021/07/01 08:27:57;;;;;;;6.18;3.90;;;;;;;15.74;92.34;99405.69;5114456;28;20183;-74
2021/07/01 08:30:27;;;;;;;4.00;3.60;;;;;;;15.60;89.78;99404.94;5114441;28;20273;-76
2021/07/01 08:32:56;;;;;;;4.93;4.07;;;;;;;15.84;90.61;99412.06;5109656;28;20203;-75
2021/07/01 08:35:25;;;;;;;4.10;3.70;;;;;;;15.99;89.38;99416.22;5093975;28;20199;-74
2021/07/01 08:37:54;;;;;;;4.07;3.50;;;;;;;16.15;85.89;99412.22;5108201;28;20506;-74
2021/07/01 08:40:21;;;;;;;4.53;3.50;;;;;;;16.26;85.04;99409.47;5113234;28;20195;-75
2021/07/01 08:42:52;;;;;;;4.13;3.75;;;;;;;16.50;83.59;99417.34;5113515;28;20183;-75
2021/07/01 08:45:20;;;;;;;5.63;3.90;;;;;;;17.09;80.52;99418.63;5113942;28;20639;-75
2021/07/01 08:48:00;;;;;;;7.60;4.32;;;;;;;18.04;76.81;99412.78;5112955;28;20203;-76
2021/07/01 08:50:32;;;;;;;5.57;4.15;;;;;;;18.04;74.40;99415.53;5101338;28;20630;-73
2021/07/01 08:53:09;;;;;;;7.00;3.97;;;;;;;17.90;75.31;99407.78;5092828;28;20203;-73
2021/07/01 08:55:41;;;;;;;5.88;4.72;;;;;;;18.19;74.86;99417.84;5092569;28;20184;-73
2021/07/01 08:58:11;;;;;;;8.18;5.28;;;;;;;17.51;76.06;99418.53;5092950;28;20236;-73
2021/07/01 09:00:40;;;;;;;13.57;5.85;;;;;;;16.93;78.83;99412.81;5092777;28;20299;-74
2021/07/01 09:03:10;;;;;;;5.68;4.57;;;;;;;16.97;79.69;99414.28;5092502;28;20197;-72
2021/07/01 09:05:39;;;;;;;6.32;5.28;;;;;;;16.82;81.20;99416.47;5092807;28;20184;-74
2021/07/01 09:08:09;;;;;;;4.72;4.20;;;;;;;16.35;80.97;99414.09;5092527;28;20234;-74
2021/07/01 09:10:36;;;;;;;5.05;4.55;;;;;;;16.17;83.98;99421.97;5092794;28;20237;-74
2021/07/01 09:13:08;;;;;;;6.07;4.70;;;;;;;15.98;84.08;99429.91;5095899;28;20235;-74
2021/07/01 09:15:36;;;;;;;6.20;4.88;;;;;;;15.70;83.35;99426.72;5113068;28;20207;-74
2021/07/01 09:18:04;;;;;;;6.72;4.50;;;;;;;16.07;81.62;99437.28;5113048;28;20543;-74
2021/07/01 09:20:36;;;;;;;6.18;4.50;;;;;;;16.13;80.28;99435.91;5111285;27;20194;-74
2021/07/01 09:23:04;;;;;;;6.60;4.93;;;;;;;16.53;78.82;99436.13;5112725;28;20664;-73
2021/07/01 09:25:31;;;;;;;6.68;5.00;;;;;;;16.28;78.63;99437.34;5112644;28;20183;-74
2021/07/01 09:27:59;;;;;;;7.18;4.80;;;;;;;15.87;83.17;99430.78;5113001;28;20231;-74
2021/07/01 09:30:28;;;;;;;8.57;5.95;;;;;;;15.79;86.99;99433.28;5112885;28;20195;-74
2021/07/01 09:32:56;;;;;;;8.57;5.15;;;;;;;15.77;92.03;99435.28;5112507;28;20251;-73
2021/07/01 09:35:24;;;;;;;6.13;5.30;;;;;;;15.79;92.11;99436.00;5111928;28;20278;-75
2021/07/01 09:37:53;;;;;;;5.78;5.18;;;;;;;15.40;92.20;99432.81;5113289;28;20184;-75
2021/07/01 09:40:21;;;;;;;5.88;4.82;;;;;;;15.30;94.63;99437.25;5113142;28;20198;-74
2021/07/01 09:42:53;;;;;;;7.40;5.47;;;;;;;15.50;95.24;99438.34;5111155;28;20182;-75
2021/07/01 09:45:24;;;;;;;6.60;5.70;;;;;;;15.52;93.65;99436.38;5113096;28;20228;-75
2021/07/01 09:47:54;;;;;;;8.80;5.78;;;;;;;15.57;91.98;99432.28;5111043;28;20202;-74
2021/07/01 09:50:23;;;;;;;6.53;5.50;;;;;;;15.97;91.27;99437.19;5112857;28;20191;-75
2021/07/01 09:52:56;;;;;;;8.05;4.90;;;;;;;16.43;86.70;99438.75;5113266;28;20214;-74
2021/07/01 09:55:27;;;;;;;6.47;5.63;;;;;;;16.60;83.85;99433.75;5100701;28;20384;-73
2021/07/01 09:57:56;;;;;;;7.97;5.22;;;;;;;16.73;82.53;99437.13;5092583;28;20272;-73
2021/07/01 10:00:28;;;;;;;8.00;4.72;;;;;;;16.54;82.48;99442.41;5092580;28;20194;-74
2021/07/01 10:03:03;;;;;;;7.03;5.25;;;;;;;16.57;81.60;99444.88;5092908;28;20180;-73
2021/07/01 10:05:30;;;;;;;7.40;5.22;;;;;;;16.37;81.17;99443.84;5092827;28;20244;-73
2021/07/01 10:07:58;;;;;;;5.45;4.80;;;;;;;16.41;81.71;99440.72;5093037;28;20264;-74
2021/07/01 10:10:26;;;;;;;7.15;4.82;;;;;;;16.34;81.46;99431.38;5092984;28;20242;-73
2021/07/01 10:12:54;;;;;;;7.70;5.50;;;;;;;16.29;82.98;99444.50;5093033;28;20184;-74
2021/07/01 10:15:29;;;;;;;8.52;5.00;;;;;;;16.33;82.89;99437.81;5093588;28;20198;-73
2021/07/01 10:18:09;;;;;;;6.50;4.82;;;;;;;16.31;82.18;99431.66;5092834;28;20225;-73
2021/07/01 10:20:38;;;;;;;8.73;4.88;;;;;;;16.36;82.30;99440.28;5092562;28;20187;-74
2021/07/01 10:23:18;;;;;;;7.45;5.13;;;;;;;16.82;79.99;99433.66;5093497;28;20630;-74
2021/07/01 10:25:46;;;;;;;5.60;4.60;;;;;;;17.65;75.90;99441.78;5094267;28;20191;-73
2021/07/01 10:28:15;;;;;;;4.93;4.35;;;;;;;17.52;74.75;99444.72;5092587;28;20248;-74
2021/07/01 10:30:42;;;;;;;5.10;4.60;;;;;;;17.43;74.36;99442.84;5093990;28;20187;-73
2021/07/01 10:33:23;;;;;;;4.55;4.05;;;;;;;17.83;72.67;99450.19;5093171;28;20315;-73
2021/07/01 10:35:50;;;;;;;5.03;4.63;;;;;;;17.86;72.04;99431.72;5096669;28;20180;-73
2021/07/01 10:38:19;;;;;;;4.90;4.20;;;;;;;18.72;68.97;99436.47;5097080;28;20302;-74
2021/07/01 10:40:47;;;;;;;5.45;4.35;;;;;;;18.51;68.77;99437.50;5096705;28;20217;-72
2021/07/01 10:43:17;;;;;;;5.45;4.90;;;;;;;18.51;67.64;99442.94;5097348;28;20206;-73
2021/07/01 10:45:57;;;;;;;4.45;3.88;;;;;;;18.00;69.99;99441.34;5096936;28;20207;-74
2021/07/01 10:48:25;;;;;;;4.80;4.30;;;;;;;17.65;70.51;99436.34;5097075;28;20198;-73
2021/07/01 10:50:54;;;;;;;5.43;4.65;;;;;;;17.55;71.73;99441.75;5095959;28;20193;-74
2021/07/01 10:53:31;;;;;;;5.35;4.63;;;;;;;17.71;69.35;99447.53;5096313;28;20278;-74
2021/07/01 10:56:01;;;;;;;6.25;4.20;;;;;;;17.40;69.72;99448.56;5096967;28;20599;-74
2021/07/01 10:58:29;;;;;;;6.15;4.45;;;;;;;17.21;71.00;99452.06;5100535;28;20184;-74
2021/07/01 11:00:57;;;;;;;5.72;5.00;;;;;;;17.08;70.59;99453.13;5116712;28;20211;-75
2021/07/01 11:03:28;;;;;;;6.28;4.30;;;;;;;17.22;71.01;99451.06;5116335;28;20600;-73
2021/07/01 11:05:55;;;;;;;4.78;4.03;;;;;;;16.96;72.51;99450.59;5116629;28;20191;-73
2021/07/01 11:08:31;;;;;;;5.70;5.03;;;;;;;17.00;72.55;99461.06;5104644;28;20262;-73
2021/07/01 11:10:58;;;;;;;5.50;4.38;;;;;;;16.81;73.76;99461.81;5096301;28;20194;-76
2021/07/01 11:13:27;;;;;;;5.80;4.28;;;;;;;17.08;73.54;99464.00;5095633;28;20207;-73
2021/07/01 11:16:06;;;;;;;6.30;4.53;;;;;;;17.22;72.78;99459.22;5096225;28;20275;-73
2021/07/01 11:18:38;;;;;;;5.38;4.70;;;;;;;17.04;72.90;99458.97;5095766;28;20205;-74
2021/07/01 11:21:14;;;;;;;5.20;4.60;;;;;;;16.81;73.56;99461.81;5095628;28;20288;-74
2021/07/01 11:23:43;;;;;;;4.20;3.70;;;;;;;16.86;73.75;99459.56;5095677;28;20184;-74
2021/07/01 11:26:30;;;;;;;4.70;3.70;;;;;;;17.05;73.31;99455.28;5094870;28;20201;-74
2021/07/01 11:28:58;;;;;;;6.22;4.28;;;;;;;17.08;73.51;99457.72;5095619;28;20196;-74
2021/07/01 11:31:37;;;;;;;5.05;4.60;;;;;;;17.25;73.38;99462.53;5095593;28;20296;-74
2021/07/01 11:34:05;;;;;;;7.88;5.03;;;;;;;17.50;72.58;99460.34;5095526;28;20311;-74